sensor_id;sensor_type;location;lat;lon;timestamp;temperature;humidity
62339;DHT22;48368;53.406;6.214;2023-03-11T00:02:23;2.10;99.90
62339;DHT22;48368;53.406;6.214;2023-03-11T00:04:49;2.10;99.90
62339;DHT22;48368;53.406;6.214;2023-03-11T00:07:15;2.10;99.90
62339;DHT22;48368;53.406;6.214;2023-03-11T00:09:41;2.10;99.90
62339;DHT22;48368;53.406;6.214;2023-03-11T00:12:07;2.10;99.90
62339;DHT22;48368;53.406;6.214;2023-03-11T00:14:33;2.10;99.90
62339;DHT22;48368;53.406;6.214;2023-03-11T00:16:58;2.10;99.90
62339;DHT22;48368;53.406;6.214;2023-03-11T00:19:24;2.10;99.90
62339;DHT22;48368;53.406;6.214;2023-03-11T00:21:50;2.10;99.90
62339;DHT22;48368;53.406;6.214;2023-03-11T00:24:15;2.20;99.90
62339;DHT22;48368;53.406;6.214;2023-03-11T00:26:41;2.20;99.90
62339;DHT22;48368;53.406;6.214;2023-03-11T00:29:07;2.20;99.90
62339;DHT22;48368;53.406;6.214;2023-03-11T00:31:32;2.10;99.90
62339;DHT22;48368;53.406;6.214;2023-03-11T00:37:38;2.20;99.90
62339;DHT22;48368;53.406;6.214;2023-03-11T00:40:04;2.20;99.90
62339;DHT22;48368;53.406;6.214;2023-03-11T00:42:33;2.20;99.90
62339;DHT22;48368;53.406;6.214;2023-03-11T00:44:59;2.20;99.90
62339;DHT22;48368;53.406;6.214;2023-03-11T00:47:24;2.20;99.90
62339;DHT22;48368;53.406;6.214;2023-03-11T00:49:50;2.20;99.90
62339;DHT22;48368;53.406;6.214;2023-03-11T00:52:16;2.20;99.90
62339;DHT22;48368;53.406;6.214;2023-03-11T00:54:41;2.10;99.90
62339;DHT22;48368;53.406;6.214;2023-03-11T00:57:07;2.10;99.90
62339;DHT22;48368;53.406;6.214;2023-03-11T00:59:34;2.20;99.90
62339;DHT22;48368;53.406;6.214;2023-03-11T01:01:59;2.20;99.90
62339;DHT22;48368;53.406;6.214;2023-03-11T01:04:25;2.20;99.90
62339;DHT22;48368;53.406;6.214;2023-03-11T01:06:51;2.20;99.90
62339;DHT22;48368;53.406;6.214;2023-03-11T01:09:29;2.20;99.90
62339;DHT22;48368;53.406;6.214;2023-03-11T01:11:55;2.20;99.90
62339;DHT22;48368;53.406;6.214;2023-03-11T01:14:21;2.20;99.90
62339;DHT22;48368;53.406;6.214;2023-03-11T01:16:47;2.20;99.90
62339;DHT22;48368;53.406;6.214;2023-03-11T01:19:13;2.20;99.90
62339;DHT22;48368;53.406;6.214;2023-03-11T01:21:38;2.20;99.90
62339;DHT22;48368;53.406;6.214;2023-03-11T01:24:04;2.20;99.90
62339;DHT22;48368;53.406;6.214;2023-03-11T01:26:30;2.10;99.90
62339;DHT22;48368;53.406;6.214;2023-03-11T01:28:55;2.10;99.90
62339;DHT22;48368;53.406;6.214;2023-03-11T01:31:21;2.10;99.90
62339;DHT22;48368;53.406;6.214;2023-03-11T01:33:47;2.10;99.90
62339;DHT22;48368;53.406;6.214;2023-03-11T01:36:14;2.10;99.90
62339;DHT22;48368;53.406;6.214;2023-03-11T01:38:39;2.10;99.90
62339;DHT22;48368;53.406;6.214;2023-03-11T01:41:05;2.10;99.90
62339;DHT22;48368;53.406;6.214;2023-03-11T01:48:38;2.10;99.90
62339;DHT22;48368;53.406;6.214;2023-03-11T01:51:05;2.10;99.90
62339;DHT22;48368;53.406;6.214;2023-03-11T01:53:53;2.00;99.90
62339;DHT22;48368;53.406;6.214;2023-03-11T01:56:20;2.10;99.90
62339;DHT22;48368;53.406;6.214;2023-03-11T01:58:46;2.10;99.90
62339;DHT22;48368;53.406;6.214;2023-03-11T02:01:26;2.10;99.90
62339;DHT22;48368;53.406;6.214;2023-03-11T02:03:52;2.10;99.90
62339;DHT22;48368;53.406;6.214;2023-03-11T02:06:23;2.10;99.90
62339;DHT22;48368;53.406;6.214;2023-03-11T02:08:50;2.10;99.90
62339;DHT22;48368;53.406;6.214;2023-03-11T02:11:22;2.00;99.90
62339;DHT22;48368;53.406;6.214;2023-03-11T02:13:50;2.10;99.90
62339;DHT22;48368;53.406;6.214;2023-03-11T02:16:16;2.10;99.90
62339;DHT22;48368;53.406;6.214;2023-03-11T02:18:42;2.20;99.90
62339;DHT22;48368;53.406;6.214;2023-03-11T02:21:26;2.20;99.90
62339;DHT22;48368;53.406;6.214;2023-03-11T02:23:57;2.20;99.90
62339;DHT22;48368;53.406;6.214;2023-03-11T02:27:00;2.10;99.90
62339;DHT22;48368;53.406;6.214;2023-03-11T02:29:27;2.10;99.90
62339;DHT22;48368;53.406;6.214;2023-03-11T02:31:55;2.10;99.90
62339;DHT22;48368;53.406;6.214;2023-03-11T02:34:28;2.10;99.90
62339;DHT22;48368;53.406;6.214;2023-03-11T02:36:59;2.10;99.90
62339;DHT22;48368;53.406;6.214;2023-03-11T02:39:37;2.10;99.90
62339;DHT22;48368;53.406;6.214;2023-03-11T02:42:11;2.00;99.90
62339;DHT22;48368;53.406;6.214;2023-03-11T02:44:41;2.00;99.90
62339;DHT22;48368;53.406;6.214;2023-03-11T02:47:08;2.00;99.90
62339;DHT22;48368;53.406;6.214;2023-03-11T02:49:35;2.00;99.90
62339;DHT22;48368;53.406;6.214;2023-03-11T02:52:01;2.00;99.90
62339;DHT22;48368;53.406;6.214;2023-03-11T02:54:27;1.90;99.90
62339;DHT22;48368;53.406;6.214;2023-03-11T02:56:53;1.90;99.90
62339;DHT22;48368;53.406;6.214;2023-03-11T02:59:18;1.90;99.90
62339;DHT22;48368;53.406;6.214;2023-03-11T03:01:44;2.00;99.90
62339;DHT22;48368;53.406;6.214;2023-03-11T03:04:10;1.90;99.90
62339;DHT22;48368;53.406;6.214;2023-03-11T03:06:35;2.00;99.90
62339;DHT22;48368;53.406;6.214;2023-03-11T03:09:01;1.90;99.90
62339;DHT22;48368;53.406;6.214;2023-03-11T03:11:27;1.90;99.90
62339;DHT22;48368;53.406;6.214;2023-03-11T03:13:59;1.90;99.90
62339;DHT22;48368;53.406;6.214;2023-03-11T03:16:24;1.90;99.90
62339;DHT22;48368;53.406;6.214;2023-03-11T03:18:50;1.90;99.90
62339;DHT22;48368;53.406;6.214;2023-03-11T03:21:17;1.90;99.90
62339;DHT22;48368;53.406;6.214;2023-03-11T03:23:42;1.90;99.90
62339;DHT22;48368;53.406;6.214;2023-03-11T03:26:11;1.90;99.90
62339;DHT22;48368;53.406;6.214;2023-03-11T03:28:38;1.90;99.90
62339;DHT22;48368;53.406;6.214;2023-03-11T03:31:08;1.90;99.90
62339;DHT22;48368;53.406;6.214;2023-03-11T03:33:34;1.90;99.90
62339;DHT22;48368;53.406;6.214;2023-03-11T03:36:00;1.90;99.90
62339;DHT22;48368;53.406;6.214;2023-03-11T03:38:25;1.90;99.90
62339;DHT22;48368;53.406;6.214;2023-03-11T03:40:51;1.90;99.90
62339;DHT22;48368;53.406;6.214;2023-03-11T03:43:17;1.90;99.90
62339;DHT22;48368;53.406;6.214;2023-03-11T03:45:42;1.90;99.90
62339;DHT22;48368;53.406;6.214;2023-03-11T03:48:08;1.80;99.90
62339;DHT22;48368;53.406;6.214;2023-03-11T03:50:34;1.90;99.90
62339;DHT22;48368;53.406;6.214;2023-03-11T03:52:59;1.90;99.90
62339;DHT22;48368;53.406;6.214;2023-03-11T03:55:25;1.90;99.90
62339;DHT22;48368;53.406;6.214;2023-03-11T03:57:50;1.90;99.90
62339;DHT22;48368;53.406;6.214;2023-03-11T04:00:16;1.80;99.90
62339;DHT22;48368;53.406;6.214;2023-03-11T04:02:42;1.90;99.90
62339;DHT22;48368;53.406;6.214;2023-03-11T04:05:08;1.90;99.90
62339;DHT22;48368;53.406;6.214;2023-03-11T04:07:34;1.90;99.90
62339;DHT22;48368;53.406;6.214;2023-03-11T04:10:06;1.90;99.90
62339;DHT22;48368;53.406;6.214;2023-03-11T04:12:32;1.90;99.90
62339;DHT22;48368;53.406;6.214;2023-03-11T04:14:57;1.90;99.90
62339;DHT22;48368;53.406;6.214;2023-03-11T04:17:23;1.90;99.90
62339;DHT22;48368;53.406;6.214;2023-03-11T04:19:49;1.90;99.90
62339;DHT22;48368;53.406;6.214;2023-03-11T04:22:14;1.90;99.90
62339;DHT22;48368;53.406;6.214;2023-03-11T04:24:40;1.90;99.90
62339;DHT22;48368;53.406;6.214;2023-03-11T04:27:25;1.90;99.90
62339;DHT22;48368;53.406;6.214;2023-03-11T04:29:50;1.80;99.90
62339;DHT22;48368;53.406;6.214;2023-03-11T04:32:16;1.80;99.90
62339;DHT22;48368;53.406;6.214;2023-03-11T04:34:45;1.80;99.90
62339;DHT22;48368;53.406;6.214;2023-03-11T04:37:11;1.80;99.90
62339;DHT22;48368;53.406;6.214;2023-03-11T04:39:37;1.80;99.90
62339;DHT22;48368;53.406;6.214;2023-03-11T04:42:02;1.80;99.90
62339;DHT22;48368;53.406;6.214;2023-03-11T04:44:28;1.80;99.90
62339;DHT22;48368;53.406;6.214;2023-03-11T04:46:54;1.80;99.90
62339;DHT22;48368;53.406;6.214;2023-03-11T04:49:20;1.80;99.90
62339;DHT22;48368;53.406;6.214;2023-03-11T04:51:45;1.80;99.90
62339;DHT22;48368;53.406;6.214;2023-03-11T04:54:11;1.80;99.90
62339;DHT22;48368;53.406;6.214;2023-03-11T04:56:37;1.80;99.90
62339;DHT22;48368;53.406;6.214;2023-03-11T04:59:02;1.70;99.90
62339;DHT22;48368;53.406;6.214;2023-03-11T05:01:28;1.70;99.90
62339;DHT22;48368;53.406;6.214;2023-03-11T05:03:53;1.70;99.90
62339;DHT22;48368;53.406;6.214;2023-03-11T05:06:19;1.70;99.90
62339;DHT22;48368;53.406;6.214;2023-03-11T05:08:45;1.70;99.90
62339;DHT22;48368;53.406;6.214;2023-03-11T05:11:11;1.70;99.90
62339;DHT22;48368;53.406;6.214;2023-03-11T05:13:37;1.70;99.90
62339;DHT22;48368;53.406;6.214;2023-03-11T05:16:03;1.70;99.90
62339;DHT22;48368;53.406;6.214;2023-03-11T05:18:29;1.70;99.90
62339;DHT22;48368;53.406;6.214;2023-03-11T05:20:56;1.70;99.90
62339;DHT22;48368;53.406;6.214;2023-03-11T05:23:22;1.70;99.90
62339;DHT22;48368;53.406;6.214;2023-03-11T05:25:47;1.70;99.90
62339;DHT22;48368;53.406;6.214;2023-03-11T05:28:13;1.70;99.90
62339;DHT22;48368;53.406;6.214;2023-03-11T05:30:39;1.70;99.90
62339;DHT22;48368;53.406;6.214;2023-03-11T05:33:04;1.70;99.90
62339;DHT22;48368;53.406;6.214;2023-03-11T05:35:32;1.70;99.90
62339;DHT22;48368;53.406;6.214;2023-03-11T05:37:58;1.60;99.90
62339;DHT22;48368;53.406;6.214;2023-03-11T05:40:23;1.60;99.90
62339;DHT22;48368;53.406;6.214;2023-03-11T05:42:49;1.60;99.90
62339;DHT22;48368;53.406;6.214;2023-03-11T05:45:16;1.60;99.90
62339;DHT22;48368;53.406;6.214;2023-03-11T05:47:42;1.60;99.90
62339;DHT22;48368;53.406;6.214;2023-03-11T05:50:10;1.60;99.90
62339;DHT22;48368;53.406;6.214;2023-03-11T05:52:36;1.60;99.90
62339;DHT22;48368;53.406;6.214;2023-03-11T05:55:02;1.50;99.90
62339;DHT22;48368;53.406;6.214;2023-03-11T05:57:28;1.50;99.90
62339;DHT22;48368;53.406;6.214;2023-03-11T05:59:53;1.50;99.90
62339;DHT22;48368;53.406;6.214;2023-03-11T06:02:19;1.50;99.90
62339;DHT22;48368;53.406;6.214;2023-03-11T06:04:46;1.50;99.90
62339;DHT22;48368;53.406;6.214;2023-03-11T06:07:12;1.50;99.90
62339;DHT22;48368;53.406;6.214;2023-03-11T06:09:39;1.40;99.90
62339;DHT22;48368;53.406;6.214;2023-03-11T06:12:05;1.50;99.90
62339;DHT22;48368;53.406;6.214;2023-03-11T06:14:31;1.50;99.90
62339;DHT22;48368;53.406;6.214;2023-03-11T06:16:57;1.50;99.90
62339;DHT22;48368;53.406;6.214;2023-03-11T06:19:24;1.50;99.90
62339;DHT22;48368;53.406;6.214;2023-03-11T06:21:50;1.50;99.90
62339;DHT22;48368;53.406;6.214;2023-03-11T06:24:16;1.50;99.90
62339;DHT22;48368;53.406;6.214;2023-03-11T06:26:41;1.50;99.90
62339;DHT22;48368;53.406;6.214;2023-03-11T06:29:12;1.50;99.90
62339;DHT22;48368;53.406;6.214;2023-03-11T06:31:38;1.50;99.90
62339;DHT22;48368;53.406;6.214;2023-03-11T06:34:04;1.60;99.90
62339;DHT22;48368;53.406;6.214;2023-03-11T06:36:31;1.70;99.90
62339;DHT22;48368;53.406;6.214;2023-03-11T06:38:57;1.70;99.90
62339;DHT22;48368;53.406;6.214;2023-03-11T06:41:23;1.80;99.90
62339;DHT22;48368;53.406;6.214;2023-03-11T06:43:49;1.90;99.90
62339;DHT22;48368;53.406;6.214;2023-03-11T06:46:18;2.00;99.90
62339;DHT22;48368;53.406;6.214;2023-03-11T06:48:45;2.10;99.90
62339;DHT22;48368;53.406;6.214;2023-03-11T06:51:12;2.20;99.90
62339;DHT22;48368;53.406;6.214;2023-03-11T06:53:38;2.30;99.90
62339;DHT22;48368;53.406;6.214;2023-03-11T06:58:30;2.50;99.90
62339;DHT22;48368;53.406;6.214;2023-03-11T07:01:01;2.50;99.90
62339;DHT22;48368;53.406;6.214;2023-03-11T07:03:28;2.60;99.90
62339;DHT22;48368;53.406;6.214;2023-03-11T07:05:53;2.70;99.90
62339;DHT22;48368;53.406;6.214;2023-03-11T07:08:19;2.80;99.90
62339;DHT22;48368;53.406;6.214;2023-03-11T07:11:09;2.80;99.90
62339;DHT22;48368;53.406;6.214;2023-03-11T07:13:35;2.90;99.90
62339;DHT22;48368;53.406;6.214;2023-03-11T07:16:06;2.90;99.90
62339;DHT22;48368;53.406;6.214;2023-03-11T07:18:33;3.00;99.90
62339;DHT22;48368;53.406;6.214;2023-03-11T07:21:03;3.00;99.90
62339;DHT22;48368;53.406;6.214;2023-03-11T07:23:29;3.10;99.90
62339;DHT22;48368;53.406;6.214;2023-03-11T07:25:55;3.20;99.90
62339;DHT22;48368;53.406;6.214;2023-03-11T07:28:25;3.20;99.90
62339;DHT22;48368;53.406;6.214;2023-03-11T07:30:51;3.30;99.90
62339;DHT22;48368;53.406;6.214;2023-03-11T07:33:18;3.30;99.90
62339;DHT22;48368;53.406;6.214;2023-03-11T07:35:44;3.30;99.90
62339;DHT22;48368;53.406;6.214;2023-03-11T07:38:10;3.30;99.90
62339;DHT22;48368;53.406;6.214;2023-03-11T07:40:35;3.30;99.90
62339;DHT22;48368;53.406;6.214;2023-03-11T07:43:01;3.30;99.90
62339;DHT22;48368;53.406;6.214;2023-03-11T07:45:28;3.40;99.90
62339;DHT22;48368;53.406;6.214;2023-03-11T07:47:53;3.40;99.90
62339;DHT22;48368;53.406;6.214;2023-03-11T07:50:19;3.40;99.90
62339;DHT22;48368;53.406;6.214;2023-03-11T07:52:47;3.40;99.90
62339;DHT22;48368;53.406;6.214;2023-03-11T07:55:16;3.50;99.90
62339;DHT22;48368;53.406;6.214;2023-03-11T07:57:42;3.50;99.90
62339;DHT22;48368;53.406;6.214;2023-03-11T08:00:09;3.50;99.90
62339;DHT22;48368;53.406;6.214;2023-03-11T08:02:35;3.50;99.90
62339;DHT22;48368;53.406;6.214;2023-03-11T08:05:00;3.60;99.90
62339;DHT22;48368;53.406;6.214;2023-03-11T08:07:26;3.60;99.90
62339;DHT22;48368;53.406;6.214;2023-03-11T08:09:52;3.70;99.90
62339;DHT22;48368;53.406;6.214;2023-03-11T08:12:19;3.80;99.90
62339;DHT22;48368;53.406;6.214;2023-03-11T08:14:45;3.80;99.90
62339;DHT22;48368;53.406;6.214;2023-03-11T08:17:11;3.90;99.90
62339;DHT22;48368;53.406;6.214;2023-03-11T08:19:36;4.00;99.90
62339;DHT22;48368;53.406;6.214;2023-03-11T08:22:02;4.10;99.90
62339;DHT22;48368;53.406;6.214;2023-03-11T08:24:28;4.10;99.90
62339;DHT22;48368;53.406;6.214;2023-03-11T08:26:54;4.10;99.90
62339;DHT22;48368;53.406;6.214;2023-03-11T08:29:22;4.20;99.90
62339;DHT22;48368;53.406;6.214;2023-03-11T08:31:47;4.20;99.90
62339;DHT22;48368;53.406;6.214;2023-03-11T08:34:13;4.30;99.90
62339;DHT22;48368;53.406;6.214;2023-03-11T08:36:39;4.40;99.90
62339;DHT22;48368;53.406;6.214;2023-03-11T08:39:05;4.40;99.90
62339;DHT22;48368;53.406;6.214;2023-03-11T08:41:31;4.50;99.90
62339;DHT22;48368;53.406;6.214;2023-03-11T08:43:57;4.60;99.90
62339;DHT22;48368;53.406;6.214;2023-03-11T08:46:34;4.60;99.90
62339;DHT22;48368;53.406;6.214;2023-03-11T08:49:01;4.70;99.90
62339;DHT22;48368;53.406;6.214;2023-03-11T08:51:29;4.70;99.90
62339;DHT22;48368;53.406;6.214;2023-03-11T08:53:55;4.80;99.90
62339;DHT22;48368;53.406;6.214;2023-03-11T08:56:21;4.90;99.90
62339;DHT22;48368;53.406;6.214;2023-03-11T08:58:47;4.90;99.90
62339;DHT22;48368;53.406;6.214;2023-03-11T09:01:13;5.00;99.90
62339;DHT22;48368;53.406;6.214;2023-03-11T09:03:39;5.10;99.90
62339;DHT22;48368;53.406;6.214;2023-03-11T09:06:07;5.20;99.90
62339;DHT22;48368;53.406;6.214;2023-03-11T09:08:34;5.30;99.90
62339;DHT22;48368;53.406;6.214;2023-03-11T09:11:00;5.30;99.90
62339;DHT22;48368;53.406;6.214;2023-03-11T09:13:26;5.40;99.90
62339;DHT22;48368;53.406;6.214;2023-03-11T09:15:52;5.50;99.90
62339;DHT22;48368;53.406;6.214;2023-03-11T09:18:18;5.60;99.90
62339;DHT22;48368;53.406;6.214;2023-03-11T09:20:44;5.70;99.90
62339;DHT22;48368;53.406;6.214;2023-03-11T09:23:12;5.70;99.90
62339;DHT22;48368;53.406;6.214;2023-03-11T09:25:38;5.80;99.90
62339;DHT22;48368;53.406;6.214;2023-03-11T09:28:04;6.00;99.90
62339;DHT22;48368;53.406;6.214;2023-03-11T09:30:30;6.10;99.90
62339;DHT22;48368;53.406;6.214;2023-03-11T09:32:58;6.20;99.90
62339;DHT22;48368;53.406;6.214;2023-03-11T09:35:30;6.30;99.90
62339;DHT22;48368;53.406;6.214;2023-03-11T09:37:55;6.40;99.90
62339;DHT22;48368;53.406;6.214;2023-03-11T09:40:22;6.50;99.90
62339;DHT22;48368;53.406;6.214;2023-03-11T09:43:24;6.50;99.90
62339;DHT22;48368;53.406;6.214;2023-03-11T09:45:59;6.60;99.90
62339;DHT22;48368;53.406;6.214;2023-03-11T09:51:27;6.90;99.90
62339;DHT22;48368;53.406;6.214;2023-03-11T09:54:08;6.90;99.90
62339;DHT22;48368;53.406;6.214;2023-03-11T09:56:38;6.90;99.90
62339;DHT22;48368;53.406;6.214;2023-03-11T09:59:29;6.90;99.90
62339;DHT22;48368;53.406;6.214;2023-03-11T10:01:55;7.00;99.90
62339;DHT22;48368;53.406;6.214;2023-03-11T10:07:20;7.30;99.90
62339;DHT22;48368;53.406;6.214;2023-03-11T10:09:53;7.20;99.90
62339;DHT22;48368;53.406;6.214;2023-03-11T10:15:38;7.00;99.90
62339;DHT22;48368;53.406;6.214;2023-03-11T10:20:45;7.30;99.90
62339;DHT22;48368;53.406;6.214;2023-03-11T10:26:14;7.40;99.90
62339;DHT22;48368;53.406;6.214;2023-03-11T10:28:46;7.40;99.90
62339;DHT22;48368;53.406;6.214;2023-03-11T10:31:29;7.40;99.90
62339;DHT22;48368;53.406;6.214;2023-03-11T10:36:50;7.40;99.90
62339;DHT22;48368;53.406;6.214;2023-03-11T10:39:18;7.40;99.90
62339;DHT22;48368;53.406;6.214;2023-03-11T10:41:57;7.60;99.90
62339;DHT22;48368;53.406;6.214;2023-03-11T10:44:36;7.60;99.90
62339;DHT22;48368;53.406;6.214;2023-03-11T10:47:02;7.70;99.90
62339;DHT22;48368;53.406;6.214;2023-03-11T10:49:28;7.80;99.90
62339;DHT22;48368;53.406;6.214;2023-03-11T10:51:55;7.90;99.90
62339;DHT22;48368;53.406;6.214;2023-03-11T10:54:29;8.00;99.90
62339;DHT22;48368;53.406;6.214;2023-03-11T10:57:02;8.00;99.90
62339;DHT22;48368;53.406;6.214;2023-03-11T10:59:46;8.00;99.90
62339;DHT22;48368;53.406;6.214;2023-03-11T11:02:30;8.00;99.90
62339;DHT22;48368;53.406;6.214;2023-03-11T11:07:46;8.20;99.90
62339;DHT22;48368;53.406;6.214;2023-03-11T11:10:18;8.20;99.90
62339;DHT22;48368;53.406;6.214;2023-03-11T11:12:56;8.30;99.90
62339;DHT22;48368;53.406;6.214;2023-03-11T11:18:17;8.50;99.90
62339;DHT22;48368;53.406;6.214;2023-03-11T11:20:59;8.70;99.90
62339;DHT22;48368;53.406;6.214;2023-03-11T11:23:31;8.80;99.90
62339;DHT22;48368;53.406;6.214;2023-03-11T11:26:01;8.90;99.90
62339;DHT22;48368;53.406;6.214;2023-03-11T11:28:31;8.80;99.90
62339;DHT22;48368;53.406;6.214;2023-03-11T11:31:05;8.80;99.90
62339;DHT22;48368;53.406;6.214;2023-03-11T11:34:29;8.90;99.90
62339;DHT22;48368;53.406;6.214;2023-03-11T11:37:00;9.00;99.90
62339;DHT22;48368;53.406;6.214;2023-03-11T11:39:35;9.00;99.90
62339;DHT22;48368;53.406;6.214;2023-03-11T11:42:05;9.10;99.90
62339;DHT22;48368;53.406;6.214;2023-03-11T11:44:34;9.10;99.90
62339;DHT22;48368;53.406;6.214;2023-03-11T11:47:11;9.20;99.90
62339;DHT22;48368;53.406;6.214;2023-03-11T11:49:49;9.20;99.90
62339;DHT22;48368;53.406;6.214;2023-03-11T11:52:19;9.20;99.90
62339;DHT22;48368;53.406;6.214;2023-03-11T11:54:49;9.20;99.90
62339;DHT22;48368;53.406;6.214;2023-03-11T11:57:18;9.20;99.90
62339;DHT22;48368;53.406;6.214;2023-03-11T11:59:45;9.00;99.90
62339;DHT22;48368;53.406;6.214;2023-03-11T12:02:37;9.00;99.90
62339;DHT22;48368;53.406;6.214;2023-03-11T12:05:29;9.00;99.90
62339;DHT22;48368;53.406;6.214;2023-03-11T12:10:56;9.30;99.90
62339;DHT22;48368;53.406;6.214;2023-03-11T12:19:02;9.30;99.90
62339;DHT22;48368;53.406;6.214;2023-03-11T12:21:49;9.40;99.90
62339;DHT22;48368;53.406;6.214;2023-03-11T12:26:48;9.70;99.90
62339;DHT22;48368;53.406;6.214;2023-03-11T12:29:23;9.80;99.90
62339;DHT22;48368;53.406;6.214;2023-03-11T12:31:51;9.80;99.90
62339;DHT22;48368;53.406;6.214;2023-03-11T12:34:22;9.60;99.90
62339;DHT22;48368;53.406;6.214;2023-03-11T12:36:52;9.30;99.90
62339;DHT22;48368;53.406;6.214;2023-03-11T12:44:36;8.80;99.90
62339;DHT22;48368;53.406;6.214;2023-03-11T12:50:35;8.70;99.90
62339;DHT22;48368;53.406;6.214;2023-03-11T12:52:51;8.70;99.90
62339;DHT22;48368;53.406;6.214;2023-03-11T12:57:59;8.90;99.90
62339;DHT22;48368;53.406;6.214;2023-03-11T13:00:27;8.90;99.90
62339;DHT22;48368;53.406;6.214;2023-03-11T13:03:13;8.80;99.90
62339;DHT22;48368;53.406;6.214;2023-03-11T13:06:04;9.00;99.90
62339;DHT22;48368;53.406;6.214;2023-03-11T13:08:47;8.80;99.90
62339;DHT22;48368;53.406;6.214;2023-03-11T13:14:22;8.90;99.90
62339;DHT22;48368;53.406;6.214;2023-03-11T13:16:50;8.90;99.90
62339;DHT22;48368;53.406;6.214;2023-03-11T13:19:34;8.80;99.90
62339;DHT22;48368;53.406;6.214;2023-03-11T13:22:02;8.90;99.90
62339;DHT22;48368;53.406;6.214;2023-03-11T13:40:35;9.10;99.90
62339;DHT22;48368;53.406;6.214;2023-03-11T13:43:22;9.10;99.90
62339;DHT22;48368;53.406;6.214;2023-03-11T13:46:05;9.00;99.90
62339;DHT22;48368;53.406;6.214;2023-03-11T13:48:40;8.90;99.90
62339;DHT22;48368;53.406;6.214;2023-03-11T13:51:16;8.80;99.90
62339;DHT22;48368;53.406;6.214;2023-03-11T13:54:01;8.90;99.90
62339;DHT22;48368;53.406;6.214;2023-03-11T13:56:31;8.70;99.90
62339;DHT22;48368;53.406;6.214;2023-03-11T13:59:22;8.50;99.90
62339;DHT22;48368;53.406;6.214;2023-03-11T14:01:52;8.30;99.90
62339;DHT22;48368;53.406;6.214;2023-03-11T14:04:33;8.10;99.90
62339;DHT22;48368;53.406;6.214;2023-03-11T14:07:16;7.90;99.90
62339;DHT22;48368;53.406;6.214;2023-03-11T14:09:44;7.80;99.90
62339;DHT22;48368;53.406;6.214;2023-03-11T14:12:10;7.70;99.90
62339;DHT22;48368;53.406;6.214;2023-03-11T14:15:12;7.40;99.90
62339;DHT22;48368;53.406;6.214;2023-03-11T14:17:38;7.10;99.90
62339;DHT22;48368;53.406;6.214;2023-03-11T14:20:11;7.10;99.90
62339;DHT22;48368;53.406;6.214;2023-03-11T14:22:43;7.20;99.90
62339;DHT22;48368;53.406;6.214;2023-03-11T14:25:13;7.20;99.90
62339;DHT22;48368;53.406;6.214;2023-03-11T14:27:47;7.20;99.90
62339;DHT22;48368;53.406;6.214;2023-03-11T14:30:19;7.40;99.90
62339;DHT22;48368;53.406;6.214;2023-03-11T14:33:04;7.50;99.90
62339;DHT22;48368;53.406;6.214;2023-03-11T14:35:32;7.60;99.90
62339;DHT22;48368;53.406;6.214;2023-03-11T14:37:58;7.60;99.90
62339;DHT22;48368;53.406;6.214;2023-03-11T14:42:53;7.50;99.90
62339;DHT22;48368;53.406;6.214;2023-03-11T14:45:22;7.20;99.90
62339;DHT22;48368;53.406;6.214;2023-03-11T14:50:29;6.60;99.90
62339;DHT22;48368;53.406;6.214;2023-03-11T14:55:34;6.20;99.90
62339;DHT22;48368;53.406;6.214;2023-03-11T14:58:09;6.30;99.90
62339;DHT22;48368;53.406;6.214;2023-03-11T15:00:41;6.40;99.90
62339;DHT22;48368;53.406;6.214;2023-03-11T15:09:17;6.50;99.90
62339;DHT22;48368;53.406;6.214;2023-03-11T15:11:25;6.50;99.90
62339;DHT22;48368;53.406;6.214;2023-03-11T15:13:53;6.30;99.90
62339;DHT22;48368;53.406;6.214;2023-03-11T15:16:31;6.30;99.90
62339;DHT22;48368;53.406;6.214;2023-03-11T15:21:48;6.20;99.90
62339;DHT22;48368;53.406;6.214;2023-03-11T15:24:22;6.30;99.90
62339;DHT22;48368;53.406;6.214;2023-03-11T15:29:19;6.20;99.90
62339;DHT22;48368;53.406;6.214;2023-03-11T15:31:45;6.20;99.90
62339;DHT22;48368;53.406;6.214;2023-03-11T15:34:20;6.20;99.90
62339;DHT22;48368;53.406;6.214;2023-03-11T15:44:35;6.40;99.90
62339;DHT22;48368;53.406;6.214;2023-03-11T15:47:02;6.40;99.90
62339;DHT22;48368;53.406;6.214;2023-03-11T15:49:28;6.40;99.90
62339;DHT22;48368;53.406;6.214;2023-03-11T15:52:01;6.40;99.90
62339;DHT22;48368;53.406;6.214;2023-03-11T15:54:27;6.30;99.90
62339;DHT22;48368;53.406;6.214;2023-03-11T15:56:55;6.40;99.90
62339;DHT22;48368;53.406;6.214;2023-03-11T15:59:22;6.30;99.90
62339;DHT22;48368;53.406;6.214;2023-03-11T16:01:48;6.20;99.90
62339;DHT22;48368;53.406;6.214;2023-03-11T16:04:16;6.20;99.90
62339;DHT22;48368;53.406;6.214;2023-03-11T16:06:43;6.20;99.90
62339;DHT22;48368;53.406;6.214;2023-03-11T16:09:10;6.20;99.90
62339;DHT22;48368;53.406;6.214;2023-03-11T16:11:37;6.20;99.90
62339;DHT22;48368;53.406;6.214;2023-03-11T16:14:03;6.10;99.90
62339;DHT22;48368;53.406;6.214;2023-03-11T16:16:29;6.00;99.90
62339;DHT22;48368;53.406;6.214;2023-03-11T16:18:55;6.00;99.90
62339;DHT22;48368;53.406;6.214;2023-03-11T16:21:24;5.90;99.90
62339;DHT22;48368;53.406;6.214;2023-03-11T16:23:53;5.90;99.90
62339;DHT22;48368;53.406;6.214;2023-03-11T16:26:20;5.80;99.90
62339;DHT22;48368;53.406;6.214;2023-03-11T16:28:46;5.90;99.90
62339;DHT22;48368;53.406;6.214;2023-03-11T16:31:12;5.80;99.90
62339;DHT22;48368;53.406;6.214;2023-03-11T16:33:38;5.70;99.90
62339;DHT22;48368;53.406;6.214;2023-03-11T16:36:04;5.70;99.90
62339;DHT22;48368;53.406;6.214;2023-03-11T16:38:44;5.60;99.90
62339;DHT22;48368;53.406;6.214;2023-03-11T16:41:10;5.50;99.90
62339;DHT22;48368;53.406;6.214;2023-03-11T16:43:35;5.50;99.90
62339;DHT22;48368;53.406;6.214;2023-03-11T16:46:01;5.40;99.90
62339;DHT22;48368;53.406;6.214;2023-03-11T16:48:27;5.30;99.90
62339;DHT22;48368;53.406;6.214;2023-03-11T16:50:52;5.30;99.90
62339;DHT22;48368;53.406;6.214;2023-03-11T16:53:18;5.30;99.90
62339;DHT22;48368;53.406;6.214;2023-03-11T16:55:45;5.20;99.90
62339;DHT22;48368;53.406;6.214;2023-03-11T16:58:12;5.10;99.90
62339;DHT22;48368;53.406;6.214;2023-03-11T17:00:38;5.20;99.90
62339;DHT22;48368;53.406;6.214;2023-03-11T17:03:05;5.10;99.90
62339;DHT22;48368;53.406;6.214;2023-03-11T17:05:31;5.10;99.90
62339;DHT22;48368;53.406;6.214;2023-03-11T17:07:57;5.10;99.90
62339;DHT22;48368;53.406;6.214;2023-03-11T17:10:29;5.00;99.90
62339;DHT22;48368;53.406;6.214;2023-03-11T17:12:54;5.00;99.90
62339;DHT22;48368;53.406;6.214;2023-03-11T17:15:20;5.00;99.90
62339;DHT22;48368;53.406;6.214;2023-03-11T17:17:46;4.90;99.90
62339;DHT22;48368;53.406;6.214;2023-03-11T17:20:12;4.70;99.90
62339;DHT22;48368;53.406;6.214;2023-03-11T17:22:38;4.70;99.90
62339;DHT22;48368;53.406;6.214;2023-03-11T17:25:04;4.60;99.90
62339;DHT22;48368;53.406;6.214;2023-03-11T17:27:30;4.60;99.90
62339;DHT22;48368;53.406;6.214;2023-03-11T17:30:00;4.50;99.90
62339;DHT22;48368;53.406;6.214;2023-03-11T17:32:26;4.50;99.90
62339;DHT22;48368;53.406;6.214;2023-03-11T17:34:54;4.50;99.90
62339;DHT22;48368;53.406;6.214;2023-03-11T17:37:20;4.40;99.90
62339;DHT22;48368;53.406;6.214;2023-03-11T17:39:46;4.40;99.90